createdAt,value
2018-09-12T00:04:44.393Z,61.48
2018-09-12T00:09:37.324Z,61.91
2018-09-12T00:14:30.476Z,62.55
2018-09-12T00:19:23.411Z,62.06
2018-09-12T00:24:16.324Z,62.41
2018-09-12T00:29:09.241Z,62.54
2018-09-12T00:34:02.123Z,62.05
2018-09-12T00:38:55.106Z,62.23
2018-09-12T00:43:48.069Z,62.63
2018-09-12T00:48:41.140Z,62.26
2018-09-12T00:53:34.065Z,62.60
2018-09-12T00:58:27.201Z,63.34
2018-09-12T01:03:20.203Z,64.21
2018-09-12T01:08:13.562Z,64.23
2018-09-12T01:13:06.796Z,64.65
2018-09-12T01:17:59.786Z,65.02
2018-09-12T01:22:59.495Z,65.57
2018-09-12T01:27:56.808Z,65.41
2018-09-12T01:32:50.071Z,65.38
2018-09-12T01:37:43.119Z,65.85
2018-09-12T01:42:36.265Z,66.10
2018-09-12T01:47:29.195Z,65.90
2018-09-12T01:52:22.369Z,66.59
2018-09-12T01:57:15.359Z,66.22
2018-09-12T02:02:08.539Z,66.67
2018-09-12T02:07:01.452Z,66.32
2018-09-12T02:11:54.697Z,67.81
2018-09-12T02:16:47.626Z,67.24
2018-09-12T02:21:40.542Z,67.13
2018-09-12T02:26:33.640Z,68.08
2018-09-12T02:31:26.486Z,68.33
2018-09-12T02:36:25.983Z,67.81
2018-09-12T02:41:18.978Z,68.16
2018-09-12T02:46:12.110Z,69.51
2018-09-12T02:51:05.221Z,69.64
2018-09-12T02:55:58.273Z,68.39
2018-09-12T03:00:51.272Z,67.24
2018-09-12T03:05:44.266Z,66.94
2018-09-12T03:10:37.285Z,67.22
2018-09-12T03:15:30.560Z,68.88
2018-09-12T03:20:23.509Z,69.90
2018-09-12T03:25:16.427Z,69.50
2018-09-12T03:30:09.507Z,69.09
2018-09-12T03:35:05.115Z,67.80
2018-09-12T03:45:09.056Z,67.84
2018-09-12T03:50:02.550Z,67.85
2018-09-12T03:54:55.602Z,69.15
2018-09-12T03:59:50.827Z,67.94
2018-09-12T04:04:44.221Z,67.03
2018-09-12T04:09:39.041Z,66.92
2018-09-12T04:14:33.284Z,66.31
2018-09-12T04:19:41.557Z,66.22
2018-09-12T04:24:37.330Z,65.47
2018-09-12T04:29:32.606Z,65.09
2018-09-12T04:34:29.470Z,64.97
2018-09-12T04:39:26.948Z,63.27
2018-09-12T04:44:21.919Z,58.52
2018-09-12T04:49:15.924Z,57.85
2018-09-12T04:54:17.350Z,57.19
2018-09-12T04:59:17.716Z,57.88
2018-09-12T05:04:15.651Z,56.87
2018-09-12T05:09:17.645Z,56.79
2018-09-12T05:14:11.691Z,56.05
2018-09-12T05:19:05.752Z,56.77
2018-09-12T05:24:04.380Z,57.41
2018-09-12T05:29:02.847Z,58.00
2018-09-12T05:33:57.085Z,57.50
2018-09-12T05:38:52.046Z,57.09
2018-09-12T05:43:47.059Z,56.77
2018-09-12T05:48:41.266Z,55.88
2018-09-12T05:53:40.774Z,55.90
2018-09-12T06:03:50.603Z,56.14
2018-09-12T06:08:50.528Z,57.24
2018-09-12T06:13:46.123Z,57.52
2018-09-12T06:18:42.119Z,57.80
2018-09-12T06:23:38.351Z,57.57
2018-09-12T06:28:34.755Z,57.71
2018-09-12T06:33:31.532Z,62.25
2018-09-12T06:38:36.468Z,64.35
2018-09-12T06:43:31.329Z,68.51
2018-09-12T06:48:29.506Z,65.61
2018-09-12T06:53:30.719Z,64.10
2018-09-12T06:58:35.278Z,63.36
2018-09-12T07:03:30.503Z,65.27
2018-09-12T07:08:26.132Z,63.67
2018-09-12T07:13:19.913Z,62.08
2018-09-12T07:18:17.731Z,62.20
2018-09-12T07:23:12.896Z,68.18
2018-09-12T07:28:08.112Z,71.12
2018-09-12T07:33:05.506Z,71.43
2018-09-12T07:38:01.533Z,71.30
2018-09-12T07:42:56.929Z,71.56
2018-09-12T07:47:54.884Z,69.68
2018-09-12T07:52:56.641Z,66.98
2018-09-12T07:57:52.231Z,65.74
2018-09-12T08:02:48.273Z,64.06
2018-09-12T08:07:42.878Z,64.84
2018-09-12T08:12:37.141Z,62.82
2018-09-12T08:17:31.230Z,61.46
2018-09-12T08:22:24.430Z,62.58
2018-09-12T08:27:17.649Z,62.76
2018-09-12T08:32:10.874Z,62.26
2018-09-12T08:37:04.137Z,60.96
2018-09-12T08:41:57.413Z,60.37
2018-09-12T08:46:50.755Z,62.65
2018-09-12T08:51:44.024Z,66.82
2018-09-12T08:56:37.502Z,65.34
2018-09-12T09:01:30.824Z,64.60
2018-09-12T09:06:24.408Z,63.27
2018-09-12T09:11:17.712Z,63.65
2018-09-12T09:16:13.062Z,63.95
2018-09-12T09:21:06.465Z,62.97
2018-09-12T09:26:00.987Z,62.08
2018-09-12T09:30:54.339Z,60.35
2018-09-12T09:35:47.757Z,59.61
2018-09-12T09:40:41.001Z,59.20
2018-09-12T09:45:34.334Z,59.35
2018-09-12T09:50:27.634Z,59.26
2018-09-12T09:55:20.876Z,58.18
2018-09-12T10:01:18.544Z,56.50
2018-09-12T10:06:17.174Z,57.62
2018-09-12T10:11:10.451Z,58.22
2018-09-12T10:16:03.788Z,59.21
2018-09-12T10:20:57.152Z,59.06
2018-09-12T10:25:50.633Z,59.21
2018-09-12T10:30:43.827Z,59.70
2018-09-12T10:35:40.439Z,59.66
2018-09-12T10:40:33.542Z,59.37
2018-09-12T10:45:26.638Z,61.90
2018-09-12T10:50:19.878Z,62.98
2018-09-12T10:55:13.026Z,63.79
2018-09-12T11:00:07.213Z,63.60
2018-09-12T11:05:00.407Z,62.65
2018-09-12T11:09:53.718Z,62.59
2018-09-12T11:14:46.828Z,62.16
2018-09-12T11:19:40.226Z,62.38
2018-09-12T11:24:33.519Z,64.96
2018-09-12T11:29:27.008Z,67.01
2018-09-12T11:34:20.300Z,67.42
2018-09-12T11:39:13.526Z,68.50
2018-09-12T11:44:06.815Z,67.64
2018-09-12T11:49:00.419Z,65.72
2018-09-12T11:53:53.637Z,63.56
2018-09-12T11:58:46.772Z,62.28
2018-09-12T12:03:40.199Z,61.15
2018-09-12T12:08:33.428Z,60.12
2018-09-12T12:13:26.974Z,60.32
2018-09-12T12:18:20.437Z,59.53
2018-09-12T12:23:13.778Z,60.03
2018-09-12T12:28:07.100Z,58.79
2018-09-12T12:33:00.539Z,57.67
2018-09-12T12:37:54.008Z,57.50
2018-09-12T12:42:47.503Z,57.88
2018-09-12T12:47:40.858Z,56.19
2018-09-12T12:52:34.339Z,55.85
2018-09-12T12:57:27.720Z,57.43
2018-09-12T13:02:21.110Z,57.46
2018-09-12T13:07:14.498Z,58.60
2018-09-12T13:12:07.874Z,58.74
2018-09-12T13:17:01.456Z,59.62
2018-09-12T13:21:57.709Z,60.67
2018-09-12T13:26:52.097Z,61.38
2018-09-12T13:31:46.565Z,61.70
2018-09-12T13:36:40.485Z,62.06
2018-09-12T13:41:35.148Z,62.76
2018-09-12T13:46:33.520Z,62.44
2018-09-12T13:51:27.319Z,63.11
2018-09-12T13:56:21.290Z,63.36
2018-09-12T14:01:15.651Z,63.80
2018-09-12T14:06:08.935Z,63.35
2018-09-12T14:11:02.240Z,63.21
2018-09-12T14:15:57.375Z,63.09
2018-09-12T14:20:50.491Z,62.70
2018-09-12T14:25:43.788Z,62.52
2018-09-12T14:30:37.424Z,62.66
2018-09-12T14:35:30.737Z,63.15
2018-09-12T14:40:24.304Z,63.33
2018-09-12T14:45:17.450Z,63.23
2018-09-12T14:50:10.556Z,63.87
2018-09-12T14:55:03.891Z,63.43
2018-09-12T14:59:57.445Z,63.18
2018-09-12T15:04:50.678Z,63.15
2018-09-12T15:09:44.279Z,62.95
2018-09-12T15:14:37.311Z,62.30
2018-09-12T15:19:33.996Z,61.78
2018-09-12T15:24:27.124Z,62.24
2018-09-12T15:29:20.834Z,61.72
2018-09-12T15:34:13.896Z,61.98
2018-09-12T15:39:09.109Z,61.78
2018-09-12T15:44:02.445Z,61.80
2018-09-12T15:48:56.498Z,62.00
2018-09-12T15:53:49.657Z,63.14
2018-09-12T15:58:57.366Z,63.40
2018-09-12T16:03:51.596Z,64.09
2018-09-12T16:08:46.379Z,64.50
2018-09-12T16:13:39.395Z,65.08
2018-09-12T16:18:32.381Z,70.77
2018-09-12T16:23:25.279Z,74.54
2018-09-12T16:28:18.423Z,77.05
2018-09-12T16:33:11.443Z,76.36
2018-09-12T16:38:04.669Z,73.52
2018-09-12T16:42:57.717Z,72.01
2018-09-12T16:47:50.749Z,71.88
2018-09-12T16:52:46.673Z,72.47
2018-09-12T16:57:40.271Z,70.44
2018-09-12T17:02:34.139Z,70.48
2018-09-12T17:07:27.651Z,72.14
2018-09-12T17:12:21.095Z,72.13
2018-09-12T17:17:18.292Z,73.07
2018-09-12T17:22:12.395Z,73.96
2018-09-12T17:27:07.601Z,74.12
2018-09-12T17:32:01.442Z,72.63
2018-09-12T17:36:55.122Z,74.74
2018-09-12T17:41:48.747Z,76.52
2018-09-12T17:46:43.059Z,79.45
2018-09-12T17:51:36.250Z,79.81
2018-09-12T17:56:29.504Z,81.18
2018-09-12T18:01:22.599Z,81.15
2018-09-12T18:06:16.021Z,82.86
2018-09-12T18:11:09.384Z,84.61
2018-09-12T18:16:02.646Z,85.92
2018-09-12T18:20:56.315Z,87.55
2018-09-12T18:25:49.774Z,85.78
2018-09-12T18:30:43.067Z,80.82
2018-09-12T18:35:36.740Z,81.28
2018-09-12T18:40:30.099Z,79.39
2018-09-12T18:45:23.451Z,78.50
2018-09-12T18:50:16.565Z,78.70
2018-09-12T18:55:11.068Z,79.31
2018-09-12T19:00:04.487Z,81.53
2018-09-12T19:04:57.955Z,79.86
2018-09-12T19:09:51.140Z,79.23
2018-09-12T19:14:44.207Z,79.95
2018-09-12T19:19:37.777Z,80.92
2018-09-12T19:24:32.013Z,82.00
2018-09-12T19:29:25.501Z,81.78
2018-09-12T19:34:19.594Z,81.98
2018-09-12T19:39:12.821Z,81.48
2018-09-12T19:44:06.173Z,81.54
2018-09-12T19:48:59.155Z,81.56
2018-09-12T19:53:52.122Z,82.03
2018-09-12T19:58:45.390Z,82.50
2018-09-12T20:03:38.520Z,81.58
2018-09-12T20:08:31.548Z,81.70
2018-09-12T20:13:24.705Z,83.60
2018-09-12T20:18:18.262Z,81.24
2018-09-12T20:23:12.155Z,81.63
2018-09-12T20:28:05.528Z,82.24
2018-09-12T20:32:58.530Z,81.27
2018-09-12T20:37:51.489Z,80.41
2018-09-12T20:42:44.475Z,79.12
2018-09-12T20:47:37.497Z,80.68
2018-09-12T20:52:30.505Z,81.37
2018-09-12T20:57:23.522Z,81.54
2018-09-12T21:02:16.561Z,81.22
2018-09-12T21:07:09.775Z,81.61
2018-09-12T21:12:02.709Z,82.05
2018-09-12T21:16:56.560Z,82.28
2018-09-12T21:21:50.431Z,83.17
2018-09-12T21:26:43.563Z,83.96
2018-09-12T21:31:36.487Z,84.38
2018-09-12T21:36:29.828Z,83.98
2018-09-12T21:41:22.795Z,84.33
2018-09-12T21:46:16.551Z,83.75
2018-09-12T21:51:09.602Z,84.45
2018-09-12T21:56:02.604Z,84.80
2018-09-12T22:00:55.646Z,86.14
2018-09-12T22:05:48.627Z,85.47
2018-09-12T22:10:41.988Z,84.73
2018-09-12T22:15:34.897Z,85.16
2018-09-12T22:20:27.982Z,85.95
2018-09-12T22:25:20.939Z,86.89
2018-09-12T22:30:14.006Z,86.87
2018-09-12T22:35:07.850Z,86.73
2018-09-12T22:40:01.487Z,86.48
2018-09-12T22:44:54.527Z,87.09
2018-09-12T22:49:48.176Z,85.80
2018-09-12T22:54:41.256Z,85.65
2018-09-12T22:59:34.149Z,86.09
2018-09-12T23:04:27.251Z,86.52
2018-09-12T23:09:20.346Z,86.08
2018-09-12T23:14:13.285Z,85.72
2018-09-12T23:19:07.089Z,85.00
2018-09-12T23:24:00.099Z,85.14
2018-09-12T23:28:53.128Z,84.65
2018-09-12T23:33:45.994Z,83.85
2018-09-12T23:38:39.061Z,84.32
2018-09-12T23:43:32.525Z,85.07
2018-09-12T23:48:25.461Z,84.70
2018-09-12T23:53:18.784Z,84.46
2018-09-12T23:58:12.021Z,84.33
